Time;durP1;ratioP1;P1;durP2;ratioP2;P2;SDS_P1;SDS_P2;PMS_P1;PMS_P2;Temp;Humidity;BMP_temperature;BMP_pressure;BME280_temperature;BME280_humidity;BME280_pressure;Samples;Min_cycle;Max_cycle;Signal;HPM_P1;HPM_P2
2024/01/27 00:01:53;;;;;;;1.38;1.00;;;;;;;9.46;40.58;93404.00;4849329;29;20057;-81
2024/01/27 00:04:22;;;;;;;1.10;1.00;;;;;;;9.34;41.62;93402.38;4848735;29;20052;-82
2024/01/27 00:06:48;;;;;;;1.10;0.85;;;;;;;9.13;43.09;93396.28;4848862;29;20059;-81
2024/01/27 00:09:18;;;;;;;1.42;0.93;;;;;;;8.92;45.35;93407.66;4834015;29;20129;-81
2024/01/27 00:11:45;;;;;;;0.80;0.80;;;;;;;8.79;45.20;93408.91;4850189;29;20050;-81
2024/01/27 00:14:16;;;;;;;1.55;1.05;;;;;;;8.64;45.42;93406.19;4849911;29;20066;-81
2024/01/27 00:17:27;;;;;;;1.30;1.00;;;;;;;8.52;46.25;93408.97;4833215;29;20041;-80
2024/01/27 00:19:53;;;;;;;0.85;0.70;;;;;;;8.41;45.80;93409.94;4848444;29;20060;-81
2024/01/27 00:22:42;;;;;;;0.77;0.77;;;;;;;8.51;42.86;93417.81;4848581;29;20550;-81
2024/01/27 00:25:30;;;;;;;0.73;0.73;;;;;;;8.65;41.98;93419.00;4848493;29;20372;-82
2024/01/27 00:28:23;;;;;;;0.73;0.73;;;;;;;8.75;40.93;93413.81;4849289;29;20101;-82
2024/01/27 00:30:56;;;;;;;0.75;0.75;;;;;;;8.82;40.72;93418.81;4848128;29;20038;-81
2024/01/27 00:33:36;;;;;;;0.52;0.52;;;;;;;8.81;40.29;93421.72;4847953;29;20125;-82
2024/01/27 00:36:05;;;;;;;0.70;0.70;;;;;;;8.80;40.50;93420.13;4831642;29;20045;-82
2024/01/27 00:38:51;;;;;;;0.60;0.60;;;;;;;8.78;40.81;93423.00;4847305;29;20089;-81
2024/01/27 00:41:54;;;;;;;0.68;0.68;;;;;;;8.85;40.41;93426.16;4848438;29;20049;-81
2024/01/27 00:44:31;;;;;;;0.70;0.70;;;;;;;8.96;40.77;93430.41;4847959;29;20091;-82
2024/01/27 00:46:59;;;;;;;0.60;0.60;;;;;;;9.10;40.90;93424.75;4830953;29;20059;-82
2024/01/27 00:49:54;;;;;;;0.82;0.70;;;;;;;9.11;41.28;93431.53;4848711;29;20030;-81
2024/01/27 00:52:28;;;;;;;0.50;0.50;;;;;;;9.08;41.33;93426.81;4851240;29;20038;-81
2024/01/27 00:55:17;;;;;;;0.50;0.50;;;;;;;9.03;41.48;93418.94;4851156;29;20048;-80
2024/01/27 01:01:34;;;;;;;0.50;0.50;;;;;;;9.05;39.11;93435.16;4851929;29;20086;-79
2024/01/27 01:04:02;;;;;;;0.55;0.55;;;;;;;9.14;39.60;93436.22;4851029;29;20105;-80
2024/01/27 01:10:21;;;;;;;;;;;;;;;9.13;40.56;93450.34;4850988;29;20114;-80
2024/01/27 01:16:42;;;;;;;0.50;0.50;;;;;;;9.20;40.33;93455.34;4850344;29;20097;-79
2024/01/27 01:19:14;;;;;;;0.73;0.73;;;;;;;9.13;40.02;93456.34;4849654;29;20046;-81
2024/01/27 01:21:47;;;;;;;;;;;;;;;9.13;39.83;93460.81;4849142;29;20078;-81
2024/01/27 01:24:22;;;;;;;0.70;0.70;;;;;;;9.09;40.26;93459.72;4849958;29;20015;-81
2024/01/27 01:27:16;;;;;;;0.68;0.60;;;;;;;9.02;40.97;93461.78;4848826;29;20101;-81
2024/01/27 01:29:41;;;;;;;0.57;0.57;;;;;;;9.07;39.99;93467.81;4848358;29;20045;-80
2024/01/27 01:32:10;;;;;;;0.50;0.50;;;;;;;8.99;40.06;93467.50;4848773;29;20034;-81
2024/01/27 01:34:59;;;;;;;0.60;0.60;;;;;;;9.05;39.84;93463.88;4849029;29;20038;-81
2024/01/27 01:37:31;;;;;;;0.60;0.60;;;;;;;9.03;39.78;93471.16;4853143;29;20058;-80
2024/01/27 01:44:29;;;;;;;0.63;0.63;;;;;;;9.00;39.11;93471.69;4851863;29;20080;-80
2024/01/27 01:50:20;;;;;;;0.60;0.60;;;;;;;8.94;39.19;93463.81;4852895;29;20113;-79
2024/01/27 01:53:15;;;;;;;0.60;0.60;;;;;;;8.85;39.46;93462.72;4850582;29;20121;-81
2024/01/27 01:56:14;;;;;;;0.70;0.70;;;;;;;8.80;39.39;93460.06;4852380;29;20406;-80
2024/01/27 01:58:39;;;;;;;0.80;0.80;;;;;;;8.80;39.10;93465.28;4851402;29;20037;-80
2024/01/27 02:01:05;;;;;;;0.43;0.43;;;;;;;8.87;39.23;93459.84;4852666;29;20049;-80
2024/01/27 02:04:08;;;;;;;0.70;0.70;;;;;;;8.79;38.92;93463.72;4821227;29;20038;-80
2024/01/27 02:06:33;;;;;;;;;;;;;;;8.90;38.71;93461.97;4796203;30;20219;-80
2024/01/27 02:09:10;;;;;;;0.50;0.50;;;;;;;8.90;38.46;93467.97;4840212;29;19916;-80
2024/01/27 02:11:42;;;;;;;0.63;0.63;;;;;;;8.88;38.55;93477.88;4851721;29;20038;-79
2024/01/27 02:14:25;;;;;;;0.50;0.50;;;;;;;8.79;39.24;93476.78;4851638;29;20050;-80
2024/01/27 02:17:25;;;;;;;;;;;;;;;8.68;39.41;93475.91;4835677;29;20070;-81
2024/01/27 02:19:51;;;;;;;0.65;0.65;;;;;;;8.70;38.25;93471.22;4835527;29;19979;-81
2024/01/27 02:22:23;;;;;;;0.60;0.60;;;;;;;8.67;38.57;93478.75;4853414;29;20076;-80
2024/01/27 02:24:49;;;;;;;0.55;0.55;;;;;;;8.65;38.07;93468.59;4852066;29;20062;-80
2024/01/27 02:27:33;;;;;;;0.65;0.65;;;;;;;8.59;38.42;93474.00;4835527;29;20034;-80
2024/01/27 02:30:01;;;;;;;0.60;0.60;;;;;;;8.60;38.13;93472.97;4851917;29;20038;-81
2024/01/27 02:32:38;;;;;;;0.50;0.50;;;;;;;8.67;38.00;93476.97;4851225;29;20046;-80
2024/01/27 02:35:04;;;;;;;0.70;0.70;;;;;;;8.69;38.04;93476.69;4835658;29;20041;-80
2024/01/27 02:37:30;;;;;;;0.50;0.50;;;;;;;8.81;37.29;93469.47;4834640;29;20412;-81
2024/01/27 02:39:56;;;;;;;0.60;0.60;;;;;;;8.74;37.69;93479.34;4850269;29;20460;-81
2024/01/27 02:42:23;;;;;;;0.60;0.60;;;;;;;8.68;37.84;93481.13;4850391;29;20055;-81
2024/01/27 02:49:49;;;;;;;0.43;0.43;;;;;;;8.72;37.12;93484.03;4832260;29;20048;-81
2024/01/27 02:55:50;;;;;;;0.60;0.60;;;;;;;8.69;36.53;93484.50;4816042;29;20068;-81
2024/01/27 02:58:42;;;;;;;0.50;0.50;;;;;;;8.80;35.58;93493.22;4831628;29;20035;-81
2024/01/27 03:01:24;;;;;;;0.57;0.57;;;;;;;8.84;35.48;93495.06;4815360;29;20502;-79
2024/01/27 03:04:27;;;;;;;0.60;0.60;;;;;;;8.81;35.46;93494.81;4831903;29;20518;-80
2024/01/27 03:07:01;;;;;;;0.52;0.50;;;;;;;8.72;35.78;93503.09;4830495;29;20143;-79
2024/01/27 03:09:56;;;;;;;0.40;0.40;;;;;;;8.75;35.67;93501.81;4831248;29;20065;-80
2024/01/27 03:13:15;;;;;;;0.60;0.60;;;;;;;8.69;35.93;93492.34;4829884;29;20034;-81
2024/01/27 03:15:43;;;;;;;0.50;0.50;;;;;;;8.72;35.11;93502.31;4831168;29;20030;-81
2024/01/27 03:18:19;;;;;;;0.65;0.60;;;;;;;8.75;34.77;93496.56;4814797;29;20630;-80
2024/01/27 03:20:46;;;;;;;0.68;0.68;;;;;;;8.83;34.21;93498.75;4830012;29;20063;-78
2024/01/27 03:24:00;;;;;;;0.47;0.47;;;;;;;8.82;34.36;93491.94;4828886;29;20042;-81
2024/01/27 03:27:11;;;;;;;0.63;0.63;;;;;;;8.83;34.20;93487.50;4829184;29;20034;-80
2024/01/27 03:30:19;;;;;;;0.47;0.47;;;;;;;8.86;33.71;93490.41;4831579;29;20446;-80
2024/01/27 03:32:45;;;;;;;0.70;0.70;;;;;;;8.82;34.25;93497.16;4814130;29;20522;-80
2024/01/27 03:35:52;;;;;;;0.57;0.57;;;;;;;8.75;34.38;93492.13;4831249;29;20109;-80
2024/01/27 03:39:00;;;;;;;0.60;0.60;;;;;;;8.73;33.53;93489.00;4814077;29;20083;-79
2024/01/27 03:42:05;;;;;;;0.50;0.50;;;;;;;8.80;33.09;93490.59;4829524;29;20098;-81
2024/01/27 03:44:30;;;;;;;0.73;0.73;;;;;;;8.78;32.92;93495.28;4846234;29;20065;-80
2024/01/27 03:47:06;;;;;;;0.45;0.45;;;;;;;8.76;33.10;93495.56;4847107;29;20022;-80
2024/01/27 03:50:05;;;;;;;0.55;0.55;;;;;;;8.83;32.58;93498.75;4846258;29;20060;-80
2024/01/27 03:52:30;;;;;;;0.50;0.50;;;;;;;8.79;32.52;93495.06;4848664;29;20042;-79
2024/01/27 03:55:07;;;;;;;0.40;0.40;;;;;;;8.98;31.81;93494.66;4848666;29;20049;-81
2024/01/27 03:57:39;;;;;;;0.60;0.60;;;;;;;8.90;32.48;93499.31;4848495;29;20475;-80
2024/01/27 04:00:06;;;;;;;;;;;;;;;8.84;31.95;93495.06;4847686;29;20042;-80
2024/01/27 04:06:13;;;;;;;0.60;0.60;;;;;;;8.99;31.25;93496.25;4847840;29;20128;-81
2024/01/27 04:12:31;;;;;;;0.55;0.55;;;;;;;8.95;31.39;93491.50;4849630;29;20443;-78
2024/01/27 04:15:15;;;;;;;0.60;0.60;;;;;;;8.92;31.38;93504.28;4846539;29;20044;-80
2024/01/27 04:18:34;;;;;;;0.47;0.47;;;;;;;8.87;31.45;93501.63;4848448;29;20048;-80
2024/01/27 04:24:54;;;;;;;0.60;0.60;;;;;;;8.87;30.75;93512.88;4849065;29;20070;-80
2024/01/27 04:27:19;;;;;;;0.70;0.70;;;;;;;8.91;30.54;93508.69;4847925;29;20429;-80
2024/01/27 04:29:45;;;;;;;0.60;0.60;;;;;;;8.95;30.77;93514.22;4848276;29;20033;-80
2024/01/27 04:32:23;;;;;;;0.60;0.60;;;;;;;8.93;30.67;93514.47;4848942;29;20165;-80
2024/01/27 04:34:59;;;;;;;0.43;0.40;;;;;;;8.91;30.63;93521.75;4847226;29;20069;-80
2024/01/27 04:37:33;;;;;;;0.60;0.60;;;;;;;8.90;30.61;93524.63;4848082;29;20045;-80
2024/01/27 04:40:05;;;;;;;1.70;0.68;;;;;;;8.88;30.56;93524.88;4849244;29;20034;-81
2024/01/27 04:42:37;;;;;;;0.65;0.63;;;;;;;8.86;30.72;93523.56;4847362;29;20535;-80
2024/01/27 04:46:20;;;;;;;0.60;0.60;;;;;;;8.81;30.95;93526.91;4830387;29;20039;-80
2024/01/27 04:48:51;;;;;;;0.40;0.40;;;;;;;8.84;30.15;93529.03;4828109;29;20047;-80
2024/01/27 04:51:25;;;;;;;0.50;0.50;;;;;;;8.93;30.13;93530.13;4832613;29;20070;-80
2024/01/27 04:53:54;;;;;;;0.52;0.52;;;;;;;8.82;30.13;93528.47;4830606;29;20487;-79
2024/01/27 04:56:57;;;;;;;0.60;0.50;;;;;;;8.82;30.50;93528.47;4831909;29;20037;-79
2024/01/27 04:59:24;;;;;;;0.65;0.65;;;;;;;8.75;30.55;93538.34;4831476;29;20057;-80
2024/01/27 05:01:52;;;;;;;0.45;0.45;;;;;;;8.87;30.28;93541.59;4832161;29;20134;-79
2024/01/27 05:04:19;;;;;;;0.50;0.50;;;;;;;8.85;30.05;93532.41;4832798;29;20046;-78
2024/01/27 05:06:52;;;;;;;0.45;0.45;;;;;;;8.80;30.14;93535.78;4831996;29;20554;-81
2024/01/27 05:09:39;;;;;;;0.50;0.50;;;;;;;8.86;29.39;93534.00;4831280;29;20046;-80
2024/01/27 05:12:43;;;;;;;0.55;0.55;;;;;;;8.83;29.66;93543.13;4835163;29;20026;-81
2024/01/27 05:15:30;;;;;;;0.70;0.70;;;;;;;8.85;30.00;93535.84;4836055;29;20038;-79
2024/01/27 05:18:03;;;;;;;1.48;0.60;;;;;;;8.77;29.60;93531.06;4834565;29;20492;-80
2024/01/27 05:20:29;;;;;;;0.60;0.60;;;;;;;8.82;29.18;93536.31;4835287;29;20133;-80
2024/01/27 05:22:54;;;;;;;0.70;0.70;;;;;;;8.81;29.49;93536.59;4833181;29;20064;-79
2024/01/27 05:25:44;;;;;;;0.60;0.60;;;;;;;8.75;29.34;93543.56;4832676;29;20099;-79
2024/01/27 05:28:09;;;;;;;0.50;0.50;;;;;;;8.71;29.23;93542.50;4834216;29;20046;-81
2024/01/27 05:30:52;;;;;;;0.60;0.60;;;;;;;8.74;29.35;93549.84;4834572;29;20555;-79
2024/01/27 05:33:19;;;;;;;0.50;0.50;;;;;;;8.73;29.32;93556.09;4817578;29;20054;-80
2024/01/27 05:36:07;;;;;;;0.50;0.50;;;;;;;8.73;28.95;93559.47;4817189;29;20142;-78
2024/01/27 05:38:36;;;;;;;0.70;0.70;;;;;;;8.67;29.06;93562.28;4833947;29;20031;-80
2024/01/27 05:41:43;;;;;;;2.05;0.50;;;;;;;8.68;28.55;93569.88;4833996;29;20042;-79
2024/01/27 05:44:10;;;;;;;0.50;0.50;;;;;;;8.66;28.52;93568.56;4844870;29;20118;-81
2024/01/27 05:46:37;;;;;;;0.60;0.60;;;;;;;8.72;28.91;93563.13;4835675;29;20042;-81
2024/01/27 05:49:32;;;;;;;0.70;0.70;;;;;;;8.77;28.70;93567.59;4851663;29;20046;-81
2024/01/27 05:51:58;;;;;;;0.60;0.60;;;;;;;8.82;28.61;93565.03;4852284;29;20027;-80
2024/01/27 05:54:29;;;;;;;0.60;0.60;;;;;;;8.78;28.67;93566.59;4852390;29;20445;-81
2024/01/27 05:57:04;;;;;;;0.60;0.60;;;;;;;8.88;28.00;93565.88;4852099;29;20106;-81
2024/01/27 05:59:40;;;;;;;0.47;0.47;;;;;;;8.86;27.96;93581.00;4852688;29;20431;-80
2024/01/27 06:02:13;;;;;;;0.60;0.60;;;;;;;8.87;27.67;93575.53;4835605;29;20042;-80
2024/01/27 06:05:10;;;;;;;0.70;0.70;;;;;;;8.83;27.51;93582.28;4853425;29;20037;-81
2024/01/27 06:08:28;;;;;;;0.57;0.57;;;;;;;8.76;27.79;93586.94;4852382;29;20042;-81
2024/01/27 06:11:43;;;;;;;0.40;0.40;;;;;;;8.75;27.65;93586.13;4851914;29;20030;-81
2024/01/27 06:14:08;;;;;;;0.73;0.68;;;;;;;8.73;27.36;93592.63;4852591;29;20041;-80
2024/01/27 06:17:19;;;;;;;0.50;0.50;;;;;;;8.69;27.36;93596.75;4852751;29;20030;-79
2024/01/27 06:19:53;;;;;;;0.47;0.47;;;;;;;8.84;26.35;93586.47;4850759;29;20037;-81
2024/01/27 06:22:32;;;;;;;0.55;0.55;;;;;;;8.79;26.68;93581.19;4850488;29;20038;-81
2024/01/27 06:28:37;;;;;;;0.50;0.50;;;;;;;8.81;26.51;93599.25;4849961;29;20041;-81
2024/01/27 06:31:04;;;;;;;0.52;0.52;;;;;;;8.80;26.59;93608.88;4849690;29;20512;-81
2024/01/27 06:33:32;;;;;;;0.60;0.60;;;;;;;8.85;27.00;93601.13;4848851;29;20036;-83
2024/01/27 06:35:58;;;;;;;0.40;0.40;;;;;;;8.90;26.64;93603.75;4849816;29;20030;-83
2024/01/27 06:38:31;;;;;;;0.60;0.60;;;;;;;8.98;26.26;93615.56;4817104;29;20563;-81
2024/01/27 06:41:09;;;;;;;0.90;0.60;;;;;;;8.98;26.19;93614.78;4848630;29;20148;-83
2024/01/27 06:43:58;;;;;;;0.70;0.70;;;;;;;9.05;25.97;93610.13;4849670;29;20113;-81
2024/01/27 06:46:26;;;;;;;0.50;0.50;;;;;;;9.01;26.06;93625.53;4850329;29;20048;-83
2024/01/27 06:49:01;;;;;;;0.50;0.50;;;;;;;8.99;25.67;93624.22;4847784;29;20045;-80
2024/01/27 06:51:28;;;;;;;0.52;0.52;;;;;;;9.00;25.48;93633.59;4831177;29;20415;-82
2024/01/27 06:53:53;;;;;;;0.50;0.50;;;;;;;8.95;26.04;93635.13;4825736;29;20037;-79
2024/01/27 06:56:19;;;;;;;0.52;0.52;;;;;;;8.95;26.10;93629.91;4847271;29;20052;-81
2024/01/27 06:58:44;;;;;;;0.60;0.60;;;;;;;8.98;25.47;93638.28;4843582;29;20056;-83
2024/01/27 07:01:10;;;;;;;0.60;0.60;;;;;;;9.03;25.60;93633.91;4838334;29;20046;-83
2024/01/27 07:03:39;;;;;;;0.63;0.63;;;;;;;9.03;25.78;93640.94;4829371;29;20487;-82
2024/01/27 07:06:06;;;;;;;0.60;0.60;;;;;;;9.02;25.44;93637.53;4802940;29;20038;-83
2024/01/27 07:08:32;;;;;;;0.52;0.52;;;;;;;9.01;25.50;93640.44;4846691;29;20109;-84
2024/01/27 07:10:58;;;;;;;0.57;0.57;;;;;;;9.20;25.08;93646.06;4844574;29;20046;-78
2024/01/27 07:13:24;;;;;;;0.50;0.50;;;;;;;10.30;23.65;93648.09;4827732;29;20036;-78
2024/01/27 07:15:50;;;;;;;0.70;0.70;;;;;;;11.68;23.24;93653.53;4845102;29;20097;-80
2024/01/27 07:18:17;;;;;;;0.60;0.60;;;;;;;13.00;21.60;93648.94;4845030;29;20033;-81
2024/01/27 07:20:44;;;;;;;0.60;0.60;;;;;;;14.21;20.99;93647.44;4843445;29;20069;-79
2024/01/27 07:23:10;;;;;;;0.63;0.63;;;;;;;14.98;19.73;93651.81;4829354;29;20034;-80
2024/01/27 07:25:51;;;;;;;0.68;0.68;;;;;;;15.93;18.81;93652.47;4830743;29;20042;-80
2024/01/27 07:28:21;;;;;;;0.60;0.60;;;;;;;16.44;18.35;93661.34;4850819;29;20105;-80
2024/01/27 07:30:47;;;;;;;0.57;0.57;;;;;;;17.30;17.77;93662.53;4847700;29;20402;-81
2024/01/27 07:33:17;;;;;;;0.52;0.52;;;;;;;18.04;16.95;93660.25;4829851;29;20042;-81
2024/01/27 07:35:55;;;;;;;0.50;0.50;;;;;;;18.87;15.84;93664.97;4849051;29;20093;-80
2024/01/27 07:38:36;;;;;;;0.30;0.30;;;;;;;19.69;16.20;93664.44;4828798;29;20042;-80
2024/01/27 07:41:03;;;;;;;0.40;0.40;;;;;;;20.20;15.33;93657.47;4828638;29;20053;-79
2024/01/27 07:43:31;;;;;;;0.40;0.40;;;;;;;20.98;15.17;93659.81;4812874;29;20131;-79
2024/01/27 07:45:57;;;;;;;0.40;0.40;;;;;;;21.27;14.35;93665.41;4808875;29;20410;-81
2024/01/27 07:48:23;;;;;;;0.40;0.40;;;;;;;21.82;14.03;93665.16;4824260;29;20050;-83
2024/01/27 07:50:50;;;;;;;0.32;0.32;;;;;;;22.43;13.07;93655.78;4829161;29;20057;-80
2024/01/27 07:53:16;;;;;;;0.40;0.40;;;;;;;23.13;12.67;93649.56;4846105;29;20034;-82
2024/01/27 07:55:42;;;;;;;0.50;0.50;;;;;;;23.20;12.81;93650.53;4831291;29;20049;-80
2024/01/27 07:58:08;;;;;;;0.50;0.50;;;;;;;23.47;11.94;93659.72;4814835;29;20021;-78
2024/01/27 08:00:33;;;;;;;0.60;0.60;;;;;;;24.09;12.81;93646.94;4848151;29;20050;-80
2024/01/27 08:02:59;;;;;;;0.52;0.52;;;;;;;24.47;11.98;93644.78;4844200;29;20041;-81
2024/01/27 08:05:25;;;;;;;0.52;0.52;;;;;;;25.03;11.12;93655.31;4831388;29;20033;-80
2024/01/27 08:07:50;;;;;;;0.45;0.45;;;;;;;25.50;11.49;93651.75;4829528;29;20034;-81
2024/01/27 08:10:20;;;;;;;0.70;0.70;;;;;;;25.65;11.07;93658.19;4845732;29;20050;-80
2024/01/27 08:12:45;;;;;;;0.68;0.68;;;;;;;25.65;10.88;93665.47;4816022;29;20061;-81
2024/01/27 08:15:11;;;;;;;0.65;0.65;;;;;;;25.55;10.70;93658.72;4813072;29;20046;-80
2024/01/27 08:17:37;;;;;;;0.57;0.57;;;;;;;25.55;11.30;93664.88;4808636;29;20043;-80
2024/01/27 08:20:03;;;;;;;0.70;0.70;;;;;;;26.25;10.60;93671.22;4813889;29;20050;-80
2024/01/27 08:22:29;;;;;;;0.80;0.80;;;;;;;25.57;10.76;93669.13;4800471;29;20037;-80
2024/01/27 08:24:55;;;;;;;0.60;0.60;;;;;;;26.44;10.32;93672.34;4811808;29;20571;-80
2024/01/27 08:27:20;;;;;;;3.25;0.70;;;;;;;27.09;10.17;93669.56;4800976;29;20077;-80
2024/01/27 08:29:46;;;;;;;0.60;0.60;;;;;;;27.65;9.51;93678.81;4807098;29;20046;-79
2024/01/27 08:32:12;;;;;;;0.60;0.60;;;;;;;28.33;9.47;93676.91;4831892;29;20105;-80
2024/01/27 08:34:37;;;;;;;0.80;0.80;;;;;;;28.13;9.36;93683.63;4813554;29;20057;-80
2024/01/27 08:37:22;;;;;;;0.70;0.70;;;;;;;28.47;8.80;93684.38;4812618;29;20026;-80
2024/01/27 08:39:50;;;;;;;0.60;0.60;;;;;;;28.66;9.11;93683.38;4841861;29;20041;-79
2024/01/27 08:42:18;;;;;;;0.70;0.70;;;;;;;29.45;8.50;93681.28;4810409;29;20041;-80
2024/01/27 08:44:43;;;;;;;0.70;0.70;;;;;;;29.13;9.09;93675.69;4831151;29;20061;-79
2024/01/27 08:47:09;;;;;;;0.70;0.70;;;;;;;29.75;7.93;93675.69;4834333;29;20046;-80
2024/01/27 08:49:35;;;;;;;0.60;0.60;;;;;;;29.50;8.71;93691.75;4814588;29;20078;-82
2024/01/27 08:52:00;;;;;;;0.60;0.60;;;;;;;28.79;8.58;93691.97;4827198;29;20041;-82
2024/01/27 08:54:26;;;;;;;0.70;0.70;;;;;;;29.18;9.23;93692.31;4811608;29;20048;-81
2024/01/27 08:56:51;;;;;;;0.52;0.52;;;;;;;29.18;8.61;93688.81;4825587;29;20050;-81
2024/01/27 08:59:17;;;;;;;0.50;0.50;;;;;;;29.17;8.91;93679.97;4804126;29;20415;-81
2024/01/27 09:01:45;;;;;;;0.60;0.60;;;;;;;27.84;9.42;93677.91;4837935;29;20090;-80
2024/01/27 09:04:11;;;;;;;0.50;0.50;;;;;;;27.22;9.73;93666.69;4841599;29;20038;-82
2024/01/27 09:06:37;;;;;;;0.47;0.47;;;;;;;26.05;9.52;93664.31;4816282;29;20042;-80
2024/01/27 09:09:02;;;;;;;0.43;0.43;;;;;;;25.92;9.92;93679.81;4825571;29;20050;-82
2024/01/27 09:11:30;;;;;;;0.30;0.30;;;;;;;24.66;10.55;93673.59;4820695;29;20044;-80
2024/01/27 09:13:56;;;;;;;0.38;0.38;;;;;;;24.44;10.92;93673.00;4839545;29;20067;-81
2024/01/27 09:16:22;;;;;;;0.40;0.40;;;;;;;24.00;10.90;93672.25;4838699;29;20073;-80
2024/01/27 09:18:50;;;;;;;0.70;0.50;;;;;;;23.92;10.80;93665.19;4824798;29;20030;-81
2024/01/27 09:21:20;;;;;;;0.30;0.30;;;;;;;23.74;11.14;93668.09;4840062;29;20502;-81
2024/01/27 09:23:47;;;;;;;0.30;0.30;;;;;;;23.96;10.23;93663.34;4824296;29;20565;-80
2024/01/27 09:26:15;;;;;;;0.30;0.30;;;;;;;24.10;11.18;93669.88;4839488;29;20125;-80
2024/01/27 09:28:43;;;;;;;0.30;0.30;;;;;;;22.62;10.61;93671.25;4836419;29;20524;-82
2024/01/27 09:31:10;;;;;;;0.50;0.50;;;;;;;23.00;11.43;93672.81;4838405;29;20098;-81
2024/01/27 09:33:36;;;;;;;0.30;0.30;;;;;;;22.65;11.46;93679.38;4819650;29;20046;-81
2024/01/27 09:36:02;;;;;;;0.40;0.40;;;;;;;22.21;11.83;93686.25;4835831;29;20113;-79
2024/01/27 09:38:28;;;;;;;0.40;0.40;;;;;;;22.70;12.03;93680.25;4840337;29;20106;-80
2024/01/27 09:40:53;;;;;;;0.38;0.38;;;;;;;22.94;11.60;93680.25;4826401;29;20045;-79
2024/01/27 09:43:19;;;;;;;0.68;0.68;;;;;;;22.99;10.93;93684.56;4827134;29;20058;-80
2024/01/27 09:45:45;;;;;;;0.30;0.30;;;;;;;22.96;12.35;93685.25;4840096;29;20563;-81
2024/01/27 09:48:12;;;;;;;0.30;0.30;;;;;;;22.75;11.01;93688.03;4829706;29;20412;-80
2024/01/27 09:50:41;;;;;;;0.30;0.30;;;;;;;23.01;11.01;93693.06;4830528;29;20029;-78
2024/01/27 09:53:08;;;;;;;0.40;0.40;;;;;;;23.42;11.29;93691.25;4838367;29;20034;-79
2024/01/27 09:55:35;;;;;;;0.43;0.43;;;;;;;22.68;12.88;93698.50;4843038;29;20041;-79
2024/01/27 09:58:01;;;;;;;0.50;0.50;;;;;;;22.70;12.22;93697.06;4827822;29;20294;-81
2024/01/27 10:00:27;;;;;;;0.50;0.50;;;;;;;22.58;12.48;93702.34;4842199;29;20034;-81
2024/01/27 10:02:54;;;;;;;0.30;0.30;;;;;;;22.50;12.99;93693.34;4840530;29;20511;-81
2024/01/27 10:05:21;;;;;;;1.85;1.27;;;;;;;20.91;12.60;93694.09;4836132;29;20042;-81
2024/01/27 10:07:46;;;;;;;0.50;0.50;;;;;;;20.42;13.31;93691.00;4844574;29;20072;-79
2024/01/27 10:10:12;;;;;;;0.30;0.30;;;;;;;19.58;13.74;93703.00;4841412;29;20042;-79
2024/01/27 10:12:44;;;;;;;2.60;0.60;;;;;;;19.69;15.54;93694.41;4845801;29;20038;-78
2024/01/27 10:15:22;;;;;;;0.40;0.40;;;;;;;20.18;14.18;93689.66;4843218;29;20034;-81
2024/01/27 10:17:49;;;;;;;0.30;0.30;;;;;;;21.03;12.90;93704.09;4851130;29;20034;-82
2024/01/27 10:20:18;;;;;;;0.30;0.30;;;;;;;21.79;11.54;93694.31;4849034;29;20038;-81
2024/01/27 10:22:45;;;;;;;0.30;0.30;;;;;;;21.09;12.71;93702.00;4834382;29;20045;-83
2024/01/27 10:25:16;;;;;;;0.30;0.30;;;;;;;21.29;12.35;93690.59;4847846;29;20364;-81
2024/01/27 10:27:42;;;;;;;0.30;0.30;;;;;;;21.61;12.44;93693.69;4845471;29;20069;-80
2024/01/27 10:30:17;;;;;;;0.45;0.40;;;;;;;21.23;12.11;93681.25;4847599;29;20032;-80
2024/01/27 10:32:42;;;;;;;0.40;0.40;;;;;;;21.39;12.33;93679.56;4830315;29;20029;-80
2024/01/27 10:35:08;;;;;;;0.35;0.35;;;;;;;21.62;12.41;93672.06;4847380;29;20042;-80
2024/01/27 10:37:34;;;;;;;0.55;0.40;;;;;;;22.04;11.67;93682.66;4827396;29;20037;-80
2024/01/27 10:40:07;;;;;;;0.50;0.50;;;;;;;22.19;11.29;93673.25;4844705;29;20057;-80
2024/01/27 10:42:35;;;;;;;0.30;0.30;;;;;;;22.73;11.51;93669.69;4839624;29;20070;-83
2024/01/27 10:45:00;;;;;;;0.30;0.30;;;;;;;22.99;11.63;93663.22;4842889;29;20054;-81
2024/01/27 10:47:30;;;;;;;0.30;0.30;;;;;;;20.45;11.81;93663.78;4823795;29;20549;-83
2024/01/27 10:49:58;;;;;;;0.28;0.28;;;;;;;20.18;12.84;93665.75;4819829;29;20073;-85
2024/01/27 10:52:28;;;;;;;0.40;0.40;;;;;;;19.97;12.59;93659.53;4835363;29;20507;-85
2024/01/27 10:55:01;;;;;;;0.47;0.47;;;;;;;19.96;12.89;93663.28;4835588;29;20410;-82
2024/01/27 10:57:27;;;;;;;;;;;;;;;19.29;12.73;93664.56;4835724;29;20032;-82
2024/01/27 10:59:57;;;;;;;0.50;0.38;;;;;;;19.62;12.38;93664.88;4835811;29;19920;-83
2024/01/27 11:02:23;;;;;;;0.30;0.30;;;;;;;20.50;13.81;93666.25;4832951;29;20038;-82
2024/01/27 11:04:51;;;;;;;0.30;0.30;;;;;;;21.25;12.88;93665.72;4835286;29;20061;-84
2024/01/27 11:07:20;;;;;;;0.30;0.30;;;;;;;21.19;11.92;93675.03;4834879;29;20053;-82
2024/01/27 11:09:48;;;;;;;0.50;0.50;;;;;;;20.40;12.15;93666.63;4809888;29;20034;-83
2024/01/27 11:12:14;;;;;;;0.30;0.30;;;;;;;20.12;11.83;93663.56;4830449;29;20407;-80
2024/01/27 11:14:40;;;;;;;0.40;0.40;;;;;;;19.20;13.13;93677.03;4832555;29;20115;-82
2024/01/27 11:17:06;;;;;;;0.45;0.45;;;;;;;19.67;12.82;93669.25;4836464;29;20041;-81
2024/01/27 11:19:33;;;;;;;0.50;0.30;;;;;;;18.68;12.73;93675.03;4839412;29;20026;-83
2024/01/27 11:22:05;;;;;;;0.30;0.30;;;;;;;18.62;13.08;93677.03;4828168;29;20525;-83
2024/01/27 11:24:31;;;;;;;0.75;0.40;;;;;;;18.99;12.99;93663.59;4842445;29;20076;-82
2024/01/27 11:27:06;;;;;;;0.30;0.30;;;;;;;18.71;13.18;93669.91;4844256;29;20030;-82
2024/01/27 11:29:34;;;;;;;0.30;0.30;;;;;;;18.49;12.94;93670.75;4832919;29;20054;-82
2024/01/27 11:32:03;;;;;;;0.40;0.40;;;;;;;18.55;12.81;93675.91;4842424;29;20502;-83
2024/01/27 11:34:47;;;;;;;0.40;0.40;;;;;;;19.00;12.97;93667.78;4843778;29;20030;-81
2024/01/27 11:37:16;;;;;;;0.85;0.50;;;;;;;18.01;13.16;93668.81;4826449;29;20038;-81
2024/01/27 11:39:41;;;;;;;0.30;0.30;;;;;;;18.01;12.79;93668.03;4842640;29;20044;-82
2024/01/27 11:42:10;;;;;;;0.30;0.30;;;;;;;18.39;12.58;93664.94;4826609;29;20682;-81
2024/01/27 11:44:40;;;;;;;0.30;0.30;;;;;;;18.10;12.74;93663.53;4843444;29;20056;-81
2024/01/27 11:47:15;;;;;;;0.40;0.40;;;;;;;18.26;13.55;93654.13;4842540;29;20045;-82
2024/01/27 11:49:42;;;;;;;0.75;0.70;;;;;;;18.66;12.91;93655.97;4827535;29;20049;-82
2024/01/27 11:52:07;;;;;;;1.85;0.50;;;;;;;18.35;12.74;93656.81;4825810;29;20509;-82
2024/01/27 11:54:33;;;;;;;0.47;0.47;;;;;;;18.01;12.60;93663.53;4843042;29;20411;-80
2024/01/27 11:56:58;;;;;;;0.30;0.30;;;;;;;17.93;13.10;93650.22;4844021;29;20487;-81
2024/01/27 11:59:24;;;;;;;0.50;0.50;;;;;;;18.44;13.04;93654.19;4842990;29;20034;-81
2024/01/27 12:01:50;;;;;;;0.30;0.30;;;;;;;19.01;13.30;93656.09;4843711;29;20045;-82
2024/01/27 12:04:17;;;;;;;0.40;0.40;;;;;;;18.99;12.77;93647.66;4844004;29;20041;-80
2024/01/27 12:06:43;;;;;;;0.38;0.38;;;;;;;18.69;12.87;93655.38;4843447;29;20038;-79
2024/01/27 12:09:11;;;;;;;0.40;0.40;;;;;;;19.16;12.39;93647.66;4843684;29;20087;-82
2024/01/27 12:11:40;;;;;;;0.30;0.30;;;;;;;18.47;13.37;93649.06;4844654;29;20046;-81
2024/01/27 12:14:05;;;;;;;0.55;0.50;;;;;;;18.29;13.07;93652.75;4844207;29;20052;-81
2024/01/27 12:16:31;;;;;;;0.20;0.20;;;;;;;18.18;12.84;93649.56;4844391;29;20038;-81
2024/01/27 12:18:57;;;;;;;0.47;0.47;;;;;;;18.34;13.67;93644.66;4843399;29;20038;-81
2024/01/27 12:21:23;;;;;;;0.30;0.30;;;;;;;18.16;13.57;93648.31;4842202;29;20093;-81
2024/01/27 12:23:56;;;;;;;3.85;2.17;;;;;;;18.08;13.54;93641.88;4843707;29;20034;-80
2024/01/27 12:26:23;;;;;;;0.50;0.50;;;;;;;18.14;13.08;93645.19;4842814;29;20490;-81
2024/01/27 12:28:48;;;;;;;0.60;0.60;;;;;;;18.16;13.58;93621.81;4826648;29;20049;-81
2024/01/27 12:31:18;;;;;;;0.40;0.40;;;;;;;17.81;12.40;93634.84;4841995;29;20419;-81
2024/01/27 12:33:51;;;;;;;0.40;0.40;;;;;;;17.95;12.37;93640.88;4842771;29;20041;-80
2024/01/27 12:36:19;;;;;;;0.45;0.45;;;;;;;18.06;13.00;93644.84;4827115;29;20074;-80
2024/01/27 12:38:53;;;;;;;0.60;0.40;;;;;;;18.18;12.06;93624.94;4844068;29;20029;-81
2024/01/27 12:41:18;;;;;;;0.40;0.40;;;;;;;17.93;12.66;93629.03;4843118;29;20034;-81
2024/01/27 12:43:44;;;;;;;1.00;0.50;;;;;;;17.99;12.84;93620.66;4835537;29;20422;-80
2024/01/27 12:46:10;;;;;;;0.40;0.40;;;;;;;18.01;11.60;93625.63;4843805;29;20046;-81
2024/01/27 12:48:36;;;;;;;0.40;0.40;;;;;;;18.15;12.43;93623.69;4827610;29;20132;-82
2024/01/27 12:51:02;;;;;;;0.40;0.40;;;;;;;17.92;12.92;93638.84;4858927;29;20060;-82